Time;durP1;ratioP1;P1;durP2;ratioP2;P2;SDS_P1;SDS_P2;PMS_P1;PMS_P2;Temp;Humidity;BMP_temperature;BMP_pressure;BME280_temperature;BME280_humidity;BME280_pressure;Samples;Min_cycle;Max_cycle;Signal;HPM_P1;HPM_P2
2021/07/10 00:01:19;;;;;;;8.95;7.97;;;;;;;18.97;74.97;97215.66;5021371;28;20156;-62
2021/07/10 00:03:45;;;;;;;9.18;7.20;;;;;;;19.21;74.39;97242.63;5023446;28;20404;-62
2021/07/10 00:06:10;;;;;;;8.35;7.55;;;;;;;19.03;75.06;97219.59;5025632;28;20086;-61
2021/07/10 00:08:36;;;;;;;7.97;7.18;;;;;;;19.18;74.29;97232.25;5026735;28;20036;-61
2021/07/10 00:11:06;;;;;;;8.02;7.32;;;;;;;19.17;74.20;97227.81;5026483;28;20061;-62
2021/07/10 00:13:31;;;;;;;10.30;6.72;;;;;;;19.10;74.65;97239.16;5026572;28;20110;-63
2021/07/10 00:15:57;;;;;;;8.60;7.32;;;;;;;19.05;74.51;97225.59;5024719;28;20496;-62
2021/07/10 00:18:23;;;;;;;13.07;7.82;;;;;;;18.56;74.50;97130.78;5026412;28;20091;-62
2021/07/10 00:20:49;;;;;;;7.75;6.95;;;;;;;18.57;74.39;97135.22;5025046;28;20053;-62
2021/07/10 00:23:15;;;;;;;8.63;7.60;;;;;;;18.94;74.75;97204.47;5026614;28;20049;-62
2021/07/10 00:25:41;;;;;;;9.85;7.38;;;;;;;19.00;74.42;97219.66;5025204;28;20053;-63
2021/07/10 00:28:07;;;;;;;10.38;7.45;;;;;;;18.95;75.25;97212.47;5026343;28;20581;-63
2021/07/10 00:30:33;;;;;;;11.45;7.60;;;;;;;18.98;75.01;97205.25;5024691;28;20041;-62
2021/07/10 00:32:59;;;;;;;9.27;7.47;;;;;;;18.45;75.04;97132.13;5026372;28;20044;-63
2021/07/10 00:35:24;;;;;;;8.93;7.20;;;;;;;18.66;74.99;97163.53;5024691;28;20052;-62
2021/07/10 00:37:50;;;;;;;8.77;7.45;;;;;;;18.86;75.39;97194.56;5024473;28;20551;-62
2021/07/10 00:40:15;;;;;;;8.55;7.75;;;;;;;18.85;75.36;97185.34;5024733;28;20033;-63
2021/07/10 00:42:42;;;;;;;7.45;6.80;;;;;;;18.94;75.09;97194.03;5024501;28;20498;-63
2021/07/10 00:45:10;;;;;;;9.57;7.55;;;;;;;18.89;74.84;97202.94;5024592;28;20033;-63
2021/07/10 00:47:36;;;;;;;9.20;6.95;;;;;;;18.70;75.65;97206.38;5026043;28;20520;-63
2021/07/10 00:50:07;;;;;;;9.10;7.15;;;;;;;18.62;76.44;97199.25;5026573;28;20033;-61
2021/07/10 00:52:33;;;;;;;7.35;6.63;;;;;;;18.55;76.88;97204.16;5016707;28;20026;-62
2021/07/10 00:54:58;;;;;;;9.52;7.20;;;;;;;18.51;76.82;97195.78;5004406;28;20029;-63
2021/07/10 00:57:24;;;;;;;8.00;7.22;;;;;;;17.73;77.76;97096.91;5004530;28;20097;-62
2021/07/10 00:59:49;;;;;;;8.43;7.05;;;;;;;18.35;77.93;97201.16;5006151;28;20045;-62
2021/07/10 01:02:15;;;;;;;10.00;7.80;;;;;;;18.42;77.97;97183.47;5004503;28;20045;-62
2021/07/10 01:04:41;;;;;;;8.15;7.45;;;;;;;18.46;77.85;97185.03;5006247;28;20034;-61
2021/07/10 01:07:06;;;;;;;8.85;7.95;;;;;;;18.49;77.74;97184.22;5006128;28;20042;-61
2021/07/10 01:09:32;;;;;;;8.82;8.00;;;;;;;18.14;78.16;97145.31;5004278;28;20036;-62
2021/07/10 01:11:57;;;;;;;8.73;7.93;;;;;;;18.04;77.82;97129.38;5004255;28;20085;-62
2021/07/10 01:14:23;;;;;;;9.68;8.65;;;;;;;18.18;78.05;97140.44;5003748;28;20029;-61
2021/07/10 01:16:49;;;;;;;8.95;8.02;;;;;;;18.47;78.43;97186.63;5004174;28;20523;-61
2021/07/10 01:19:28;;;;;;;8.57;7.78;;;;;;;18.57;77.55;97179.31;5005307;28;20092;-64
2021/07/10 01:21:55;;;;;;;9.90;7.68;;;;;;;18.53;77.19;97156.88;5005593;28;20038;-61
2021/07/10 01:24:20;;;;;;;8.30;7.25;;;;;;;18.13;77.19;97127.69;5004454;28;20100;-61
2021/07/10 01:26:45;;;;;;;9.27;7.30;;;;;;;18.60;77.02;97168.03;5003876;28;20034;-61
2021/07/10 01:29:11;;;;;;;7.90;7.20;;;;;;;18.53;76.75;97161.69;5004056;28;20107;-64
2021/07/10 01:31:39;;;;;;;7.97;7.28;;;;;;;18.51;76.50;97142.47;5003875;28;20044;-63
2021/07/10 01:34:04;;;;;;;7.75;6.90;;;;;;;18.52;76.42;97158.13;5003923;28;20164;-61
2021/07/10 01:36:30;;;;;;;7.78;7.07;;;;;;;18.06;76.27;97104.53;5003795;28;20061;-61
2021/07/10 01:38:56;;;;;;;7.47;6.70;;;;;;;18.22;76.28;97117.97;5005263;28;20041;-63
2021/07/10 01:41:21;;;;;;;10.40;7.60;;;;;;;18.41;76.41;97149.03;5005753;28;20033;-62
2021/07/10 01:43:47;;;;;;;8.18;7.28;;;;;;;18.37;76.80;97153.84;5005186;28;20045;-61
2021/07/10 01:46:12;;;;;;;8.55;7.13;;;;;;;18.41;76.20;97137.81;5005423;28;20026;-62
2021/07/10 01:48:38;;;;;;;9.48;7.10;;;;;;;18.24;77.05;97143.59;5003401;28;20081;-62
2021/07/10 01:51:03;;;;;;;8.38;6.30;;;;;;;17.71;77.82;97068.47;5003483;28;20092;-61
2021/07/10 01:53:29;;;;;;;7.38;6.68;;;;;;;17.50;78.10;97057.47;5020157;28;20025;-62
2021/07/10 01:55:54;;;;;;;11.85;7.25;;;;;;;18.05;78.52;97139.41;5022860;28;20033;-62
2021/07/10 01:58:20;;;;;;;7.38;6.65;;;;;;;18.03;78.32;97139.81;5024490;28;20021;-62
2021/07/10 02:00:46;;;;;;;8.38;6.80;;;;;;;18.09;78.26;97126.94;5024955;28;20047;-62
2021/07/10 02:03:12;;;;;;;9.55;7.43;;;;;;;18.12;78.05;97125.28;5024860;28;20030;-62
2021/07/10 02:05:38;;;;;;;10.38;6.82;;;;;;;18.15;78.24;97127.25;5022971;28;20034;-63
2021/07/10 02:08:04;;;;;;;8.40;6.85;;;;;;;18.04;78.50;97129.38;5022752;28;20500;-61
2021/07/10 02:10:31;;;;;;;8.63;6.93;;;;;;;17.99;78.67;97121.44;5024578;28;20037;-61
2021/07/10 02:13:01;;;;;;;8.98;7.18;;;;;;;17.82;78.30;97077.56;5024194;28;20041;-62
2021/07/10 02:15:27;;;;;;;12.15;7.10;;;;;;;18.04;78.21;97124.59;5022596;28;20103;-62
2021/07/10 02:17:53;;;;;;;8.02;7.18;;;;;;;17.94;77.94;97117.06;5023533;28;20546;-62
2021/07/10 02:20:21;;;;;;;8.63;7.25;;;;;;;17.86;78.77;97114.78;5024013;28;20045;-62
2021/07/10 02:22:48;;;;;;;8.27;6.88;;;;;;;17.86;78.64;97115.56;5022537;28;20039;-62
2021/07/10 02:25:16;;;;;;;8.38;7.57;;;;;;;17.84;79.01;97108.78;5024187;28;20034;-61
2021/07/10 02:27:41;;;;;;;8.18;7.28;;;;;;;17.34;80.29;97090.84;5021774;28;20038;-62
2021/07/10 02:30:13;;;;;;;8.50;7.55;;;;;;;17.51;80.98;97112.31;5022413;28;20439;-62
2021/07/10 02:32:39;;;;;;;7.82;7.10;;;;;;;17.65;80.27;97109.38;5024012;28;20048;-64
2021/07/10 02:35:09;;;;;;;7.63;6.72;;;;;;;17.31;80.46;97063.66;5022410;28;20034;-62
2021/07/10 02:37:36;;;;;;;10.98;7.47;;;;;;;17.48;79.95;97090.75;5022663;28;20037;-63
2021/07/10 02:40:04;;;;;;;11.27;7.63;;;;;;;17.64;79.90;97119.00;5024071;28;20574;-62
2021/07/10 02:42:30;;;;;;;12.00;6.78;;;;;;;17.60;79.80;97113.44;5022133;28;20029;-63
2021/07/10 02:44:56;;;;;;;8.15;6.60;;;;;;;17.50;80.42;97107.91;5023909;28;20036;-62
2021/07/10 02:47:21;;;;;;;9.65;7.15;;;;;;;17.00;80.68;97042.31;5022095;28;20033;-62
2021/07/10 02:49:46;;;;;;;11.88;7.10;;;;;;;17.33;81.06;97095.63;5022334;28;20036;-62
2021/07/10 02:52:12;;;;;;;11.23;7.35;;;;;;;17.53;80.99;97115.50;5018895;28;20024;-61
2021/07/10 02:54:38;;;;;;;8.48;7.05;;;;;;;17.35;80.17;97092.41;5002784;28;20042;-60
2021/07/10 02:57:04;;;;;;;8.32;7.28;;;;;;;17.56;80.30;97107.03;5003080;28;20429;-59
2021/07/10 02:59:29;;;;;;;9.02;7.60;;;;;;;17.59;79.96;97113.84;5004460;28;20432;-58
2021/07/10 03:01:55;;;;;;;9.52;7.10;;;;;;;17.44;80.46;97106.72;5002163;28;20049;-59
2021/07/10 03:04:20;;;;;;;9.35;7.32;;;;;;;17.35;80.92;97103.63;5003369;28;20042;-58
2021/07/10 03:06:46;;;;;;;8.70;7.70;;;;;;;17.24;81.83;97108.50;5002236;28;20038;-59
2021/07/10 03:09:11;;;;;;;7.75;6.93;;;;;;;17.35;81.41;97114.81;5002003;28;20041;-60
2021/07/10 03:11:37;;;;;;;11.40;7.03;;;;;;;17.37;81.58;97112.41;5003480;28;20042;-60
2021/07/10 03:14:02;;;;;;;8.85;7.25;;;;;;;17.10;81.13;97055.44;5001864;28;20026;-61
2021/07/10 03:16:28;;;;;;;9.93;7.57;;;;;;;17.51;81.21;97117.91;5003161;28;20041;-60
2021/07/10 03:18:54;;;;;;;14.18;7.78;;;;;;;17.59;80.24;97113.84;5003605;28;20496;-59
2021/07/10 03:21:19;;;;;;;20.90;7.90;;;;;;;17.20;80.49;97058.13;5002508;28;20030;-58
2021/07/10 03:23:45;;;;;;;13.43;7.88;;;;;;;17.39;80.15;97079.16;5003409;28;20078;-58
2021/07/10 03:26:11;;;;;;;9.50;7.47;;;;;;;17.72;79.88;97117.72;5002061;28;20034;-59
2021/07/10 03:28:36;;;;;;;11.35;8.20;;;;;;;17.75;79.71;97111.28;5002104;28;20030;-58
2021/07/10 03:31:02;;;;;;;9.77;8.00;;;;;;;17.91;78.91;97103.91;5003465;28;20421;-57
2021/07/10 03:33:27;;;;;;;9.80;7.50;;;;;;;18.12;77.55;97114.06;5001782;28;20068;-59
2021/07/10 03:35:53;;;;;;;10.38;7.45;;;;;;;18.13;77.96;97116.47;5001799;28;20096;-58
2021/07/10 03:38:18;;;;;;;7.07;6.40;;;;;;;18.24;76.95;97115.56;5002457;28;20525;-60
2021/07/10 03:40:45;;;;;;;8.07;7.40;;;;;;;18.22;77.36;97118.78;5005767;28;20069;-58
2021/07/10 03:43:10;;;;;;;7.78;7.00;;;;;;;18.03;77.26;97082.94;5007613;28;20033;-59
2021/07/10 03:45:36;;;;;;;8.50;6.00;;;;;;;18.36;77.02;97129.03;5005719;28;20041;-59
2021/07/10 03:48:02;;;;;;;10.85;7.57;;;;;;;18.19;76.13;97059.94;5005577;28;20034;-57
2021/07/10 03:50:28;;;;;;;8.07;6.97;;;;;;;18.64;75.61;97129.50;5007333;28;20038;-58
2021/07/10 03:52:53;;;;;;;10.30;6.70;;;;;;;18.50;75.69;97092.41;5005379;28;20088;-57
2021/07/10 03:55:19;;;;;;;13.18;6.15;;;;;;;18.72;75.31;97102.94;5007629;28;20409;-58
2021/07/10 03:57:45;;;;;;;12.07;7.80;;;;;;;18.84;74.69;97116.38;5005640;28;20048;-59
2021/07/10 04:00:15;;;;;;;10.77;7.20;;;;;;;18.90;74.42;97108.28;5005651;28;20104;-58
2021/07/10 04:02:41;;;;;;;9.60;6.90;;;;;;;18.90;74.20;97114.72;5005361;28;20153;-58
2021/07/10 04:05:08;;;;;;;9.93;7.57;;;;;;;18.90;74.00;97109.09;5005500;28;20060;-58
2021/07/10 04:07:33;;;;;;;10.68;7.07;;;;;;;19.02;73.85;97105.69;5005276;28;20037;-60
2021/07/10 04:10:00;;;;;;;8.13;6.78;;;;;;;19.33;72.99;97093.19;5005210;28;20112;-59
2021/07/10 04:12:26;;;;;;;10.80;6.50;;;;;;;19.36;72.04;97086.72;5005271;28;20612;-59
2021/07/10 04:14:51;;;;;;;9.88;6.53;;;;;;;19.45;71.69;97086.97;5005604;28;20033;-60
2021/07/10 04:17:17;;;;;;;9.55;6.05;;;;;;;19.07;71.34;97023.00;5006727;28;20056;-59
2021/07/10 04:19:43;;;;;;;7.45;6.63;;;;;;;19.62;71.32;97098.34;5004880;28;20042;-59
2021/07/10 04:22:09;;;;;;;8.15;6.30;;;;;;;19.78;70.43;97090.81;5020776;28;20143;-60
2021/07/10 04:24:34;;;;;;;7.22;6.53;;;;;;;19.16;69.88;96981.91;5021549;28;20663;-59
2021/07/10 04:27:00;;;;;;;10.65;6.95;;;;;;;19.79;70.52;97088.78;5006427;28;20029;-59
2021/07/10 04:29:25;;;;;;;11.52;6.82;;;;;;;19.88;69.96;97072.16;5021490;28;20087;-61
2021/07/10 04:31:51;;;;;;;8.02;6.35;;;;;;;19.77;69.51;97037.81;5005066;28;20038;-59
2021/07/10 04:34:16;;;;;;;8.25;6.40;;;;;;;19.78;69.34;97028.94;5005032;28;20025;-59
2021/07/10 04:36:42;;;;;;;8.25;6.50;;;;;;;20.19;69.46;97084.81;5006113;28;20104;-59
2021/07/10 04:39:07;;;;;;;7.53;6.28;;;;;;;20.42;68.30;97074.28;5004604;28;20030;-60
2021/07/10 04:41:33;;;;;;;9.98;7.07;;;;;;;20.54;68.14;97081.28;5004393;28;20588;-59
2021/07/10 04:43:58;;;;;;;21.65;17.95;;;;;;;20.53;67.94;97074.84;5004410;28;20026;-59
2021/07/10 04:46:23;;;;;;;54.60;45.60;;;;;;;20.64;67.62;97091.53;5005887;28;20298;-60
2021/07/10 04:48:49;;;;;;;17.52;16.00;;;;;;;20.77;66.77;97081.19;5004815;28;20030;-59
2021/07/10 04:51:15;;;;;;;14.23;12.73;;;;;;;20.75;65.75;97047.81;5004122;28;20041;-58
2021/07/10 04:53:40;;;;;;;15.82;12.55;;;;;;;21.16;64.81;97074.66;5004644;28;20038;-58
2021/07/10 04:56:06;;;;;;;10.43;7.90;;;;;;;21.36;63.93;97076.16;5004013;28;20448;-59
2021/07/10 04:58:31;;;;;;;9.82;8.40;;;;;;;21.30;63.84;97044.13;5004375;28;20483;-59
2021/07/10 05:00:57;;;;;;;11.50;7.43;;;;;;;21.43;62.48;97025.28;5004179;28;20506;-60
2021/07/10 05:03:22;;;;;;;8.07;6.78;;;;;;;21.85;62.20;97076.94;5004022;28;20408;-59
2021/07/10 05:05:47;;;;;;;10.05;6.60;;;;;;;22.10;61.84;97080.69;5004448;28;20048;-60
2021/07/10 05:08:13;;;;;;;11.27;6.93;;;;;;;22.24;61.64;97057.69;5005925;28;20033;-60
2021/07/10 05:10:39;;;;;;;14.95;7.80;;;;;;;22.59;60.58;97077.72;5004110;28;20534;-60
2021/07/10 05:13:05;;;;;;;8.95;6.22;;;;;;;22.68;59.81;97069.38;5005898;28;20045;-61
2021/07/10 05:15:30;;;;;;;12.88;7.22;;;;;;;22.57;59.32;97040.66;5004025;28;20201;-58
2021/07/10 05:17:56;;;;;;;9.88;6.90;;;;;;;22.78;59.53;97046.44;5004044;28;20137;-58
2021/07/10 05:20:21;;;;;;;8.13;7.32;;;;;;;23.08;59.56;97081.84;5003647;28;20045;-60
2021/07/10 05:22:47;;;;;;;12.32;7.03;;;;;;;23.31;59.11;97078.69;5004317;28;20041;-59
2021/07/10 05:25:13;;;;;;;7.35;6.32;;;;;;;23.01;59.23;97037.66;5003867;28;20030;-58
2021/07/10 05:27:39;;;;;;;9.43;7.50;;;;;;;23.30;59.44;97054.50;5003781;28;20026;-59
2021/07/10 05:30:14;;;;;;;9.43;7.25;;;;;;;23.06;60.76;97078.69;5003991;28;20041;-60
2021/07/10 05:32:39;;;;;;;12.95;7.97;;;;;;;23.03;59.80;97000.47;5005223;28;20034;-60
2021/07/10 05:35:07;;;;;;;9.10;7.70;;;;;;;23.55;59.27;97043.16;5003658;28;20567;-60
2021/07/10 05:37:33;;;;;;;8.48;7.55;;;;;;;23.95;58.56;97080.94;5003617;28;20038;-58
2021/07/10 05:39:59;;;;;;;10.90;7.25;;;;;;;24.11;57.34;97089.31;5005591;28;20044;-62
2021/07/10 05:42:24;;;;;;;12.13;7.60;;;;;;;23.76;57.81;97017.75;5005351;28;20150;-59
2021/07/10 05:44:50;;;;;;;10.25;8.30;;;;;;;23.56;58.75;97041.91;5004888;28;20029;-61
2021/07/10 05:47:15;;;;;;;12.77;8.20;;;;;;;23.32;59.22;97083.91;5003178;28;20085;-59
2021/07/10 05:49:41;;;;;;;11.82;8.38;;;;;;;22.80;59.84;96981.00;5005447;28;20029;-59
2021/07/10 05:52:06;;;;;;;12.40;8.07;;;;;;;23.46;59.16;97079.81;5005130;28;20150;-60
2021/07/10 05:54:32;;;;;;;18.95;8.48;;;;;;;23.59;57.24;97044.63;5003558;28;20555;-59
2021/07/10 05:56:57;;;;;;;13.40;7.63;;;;;;;23.95;56.69;97077.34;5003553;28;20440;-60
2021/07/10 05:59:23;;;;;;;8.77;7.93;;;;;;;24.32;56.00;97060.22;5020227;28;20439;-59
2021/07/10 06:01:48;;;;;;;9.73;8.38;;;;;;;24.56;55.15;97052.84;5001174;28;20034;-61
2021/07/10 06:04:14;;;;;;;12.18;8.77;;;;;;;24.85;53.71;97078.09;5006237;28;20072;-60
2021/07/10 06:06:39;;;;;;;9.60;7.80;;;;;;;24.75;53.59;97037.59;5002675;28;20033;-61
2021/07/10 06:09:05;;;;;;;13.40;8.00;;;;;;;25.14;52.57;97068.00;5018082;28;20055;-60
2021/07/10 06:11:30;;;;;;;8.68;7.88;;;;;;;25.20;51.25;97071.81;5023463;28;20036;-60
2021/07/10 06:13:56;;;;;;;10.77;8.30;;;;;;;25.39;50.98;97072.69;5024529;28;20021;-61
2021/07/10 06:16:21;;;;;;;12.82;8.18;;;;;;;25.04;50.93;96992.66;5024244;28;20100;-59
2021/07/10 06:18:47;;;;;;;9.73;8.48;;;;;;;25.27;50.83;96994.16;5018938;28;20026;-57
2021/07/10 06:21:12;;;;;;;17.20;8.80;;;;;;;25.41;50.56;96984.28;5007202;28;20513;-60
2021/07/10 06:23:39;;;;;;;17.60;8.70;;;;;;;25.90;49.50;97010.53;5002492;28;20436;-60
2021/07/10 06:26:05;;;;;;;15.35;8.30;;;;;;;26.30;48.79;97074.44;5004332;28;20060;-59
2021/07/10 06:28:30;;;;;;;16.02;8.18;;;;;;;26.10;48.94;97008.81;5002526;28;20026;-58
2021/07/10 06:30:56;;;;;;;10.90;8.35;;;;;;;26.76;49.06;97075.25;5003992;28;20564;-60
2021/07/10 06:33:22;;;;;;;8.82;8.02;;;;;;;26.99;47.27;97080.22;5004110;28;20033;-58
2021/07/10 06:35:48;;;;;;;12.50;9.13;;;;;;;27.09;47.17;97092.38;5008139;28;20107;-60
2021/07/10 06:38:13;;;;;;;13.50;8.30;;;;;;;27.10;45.27;97052.06;5014391;28;20033;-59
2021/07/10 06:40:38;;;;;;;10.23;8.00;;;;;;;27.00;44.29;97007.84;5007981;28;20132;-60
2021/07/10 06:43:04;;;;;;;8.68;7.88;;;;;;;27.53;44.61;97065.84;5010211;28;20034;-64
2021/07/10 06:45:29;;;;;;;8.38;7.53;;;;;;;27.73;43.71;97060.34;5012112;28;20103;-63
2021/07/10 06:47:58;;;;;;;8.80;7.95;;;;;;;26.29;44.37;96827.78;5014532;28;20034;-64
2021/07/10 06:50:23;;;;;;;9.55;8.18;;;;;;;27.31;44.41;96965.72;5006153;28;20092;-59
2021/07/10 06:52:49;;;;;;;8.50;7.57;;;;;;;27.83;44.09;97064.72;5016383;28;20512;-58
2021/07/10 06:55:16;;;;;;;9.07;8.15;;;;;;;27.88;44.29;97061.19;5012570;28;20041;-59
2021/07/10 06:57:42;;;;;;;9.55;8.05;;;;;;;27.65;43.99;97059.13;5006468;28;20440;-59
2021/07/10 07:00:13;;;;;;;9.32;8.52;;;;;;;27.58;44.40;97041.59;5004317;28;20033;-60
2021/07/10 07:02:39;;;;;;;9.23;8.35;;;;;;;27.88;42.68;97049.81;5004737;28;20428;-59
2021/07/10 07:05:05;;;;;;;8.90;8.00;;;;;;;28.10;42.45;97056.00;5004961;28;20364;-61
2021/07/10 07:07:31;;;;;;;8.15;7.55;;;;;;;27.94;41.18;97052.78;5014017;28;20077;-64
2021/07/10 07:09:57;;;;;;;8.10;7.32;;;;;;;27.65;41.82;97050.56;5021420;28;20025;-61
2021/07/10 07:12:22;;;;;;;8.77;8.02;;;;;;;27.85;40.51;97067.84;5021227;28;20042;-61
2021/07/10 07:14:48;;;;;;;9.05;7.78;;;;;;;28.17;38.91;97054.06;5004574;28;20040;-60
2021/07/10 07:17:14;;;;;;;9.73;7.30;;;;;;;28.02;40.46;97036.91;5001569;28;20034;-62
2021/07/10 07:19:39;;;;;;;9.25;7.80;;;;;;;28.27;38.45;97044.16;5003026;28;20070;-65
2021/07/10 07:22:04;;;;;;;8.70;7.90;;;;;;;28.17;38.71;97051.97;5001867;28;20052;-61
2021/07/10 07:24:30;;;;;;;7.38;6.75;;;;;;;28.23;39.02;97052.91;5022820;28;20090;-61
2021/07/10 07:26:56;;;;;;;9.52;8.63;;;;;;;27.75;41.09;97023.63;5021528;28;20041;-63
2021/07/10 07:29:22;;;;;;;9.82;8.13;;;;;;;27.71;39.07;97057.19;5023756;28;20069;-61
2021/07/10 07:31:47;;;;;;;7.53;6.88;;;;;;;27.86;39.19;97058.03;5022896;28;20048;-61
2021/07/10 07:34:13;;;;;;;8.30;7.63;;;;;;;27.73;38.60;97054.63;5021421;28;20538;-59
2021/07/10 07:36:38;;;;;;;7.80;7.10;;;;;;;27.82;38.96;97057.41;5022983;28;20049;-59
2021/07/10 07:39:06;;;;;;;8.40;7.65;;;;;;;27.65;39.06;97029.84;5022803;28;20427;-62
2021/07/10 07:41:33;;;;;;;7.47;6.88;;;;;;;27.74;40.15;97061.13;5011238;28;20065;-59
2021/07/10 07:43:58;;;;;;;8.52;7.50;;;;;;;27.67;38.87;97038.69;5018683;28;20025;-62
2021/07/10 07:46:24;;;;;;;7.95;7.38;;;;;;;27.69;40.06;97028.41;5004412;28;20086;-64
2021/07/10 07:48:49;;;;;;;10.25;7.13;;;;;;;27.52;39.76;97060.63;5015076;28;20048;-64
2021/07/10 07:51:15;;;;;;;6.95;6.40;;;;;;;27.76;38.40;97059.38;5011901;28;20033;-62
2021/07/10 07:53:43;;;;;;;7.72;6.90;;;;;;;27.39;39.77;97052.31;5015110;28;20041;-61
2021/07/10 07:56:08;;;;;;;8.55;7.05;;;;;;;27.41;39.84;97044.06;5020704;28;20195;-62
2021/07/10 07:58:34;;;;;;;7.32;6.68;;;;;;;27.60;38.94;97051.22;5013294;28;20038;-62
2021/07/10 08:00:59;;;;;;;7.47;6.93;;;;;;;27.68;39.85;97046.75;5003092;28;20030;-62
2021/07/10 08:03:25;;;;;;;8.50;7.57;;;;;;;27.78;39.29;97027.56;5002613;28;20606;-59
2021/07/10 08:05:50;;;;;;;8.48;7.78;;;;;;;27.62;39.35;97054.38;5002642;28;20438;-59
2021/07/10 08:08:16;;;;;;;7.35;6.80;;;;;;;28.04;38.99;97051.47;5019478;28;20529;-60
2021/07/10 08:10:41;;;;;;;9.43;6.55;;;;;;;27.95;37.96;97035.22;5019786;28;20064;-63
2021/07/10 08:13:06;;;;;;;6.82;6.30;;;;;;;27.42;38.33;97051.34;5011697;28;20068;-61
2021/07/10 08:15:32;;;;;;;8.55;7.88;;;;;;;27.56;38.59;97050.63;5016805;28;20025;-60
2021/07/10 08:17:58;;;;;;;8.50;7.80;;;;;;;27.92;38.04;97044.75;5015735;28;20124;-63
2021/07/10 08:20:24;;;;;;;7.28;6.78;;;;;;;27.61;38.24;97030.06;5019026;28;20056;-60
2021/07/10 08:22:50;;;;;;;7.88;7.20;;;;;;;27.86;38.22;97011.69;5016955;28;20072;-64
2021/07/10 08:25:16;;;;;;;8.80;6.93;;;;;;;28.28;38.65;97045.75;5028760;28;20037;-60
2021/07/10 08:27:43;;;;;;;7.95;7.28;;;;;;;26.85;37.65;96796.59;5024125;28;20045;-66
2021/07/10 08:30:10;;;;;;;7.43;6.82;;;;;;;28.25;37.49;97047.47;5019219;28;20083;-64
2021/07/10 08:32:36;;;;;;;8.13;7.55;;;;;;;28.17;37.71;97038.53;5004853;28;20488;-62
2021/07/10 08:35:03;;;;;;;8.57;7.80;;;;;;;28.34;37.40;96995.34;5006777;28;20062;-62
2021/07/10 08:37:28;;;;;;;7.60;7.00;;;;;;;28.60;36.70;97033.41;5009028;28;20045;-63
2021/07/10 08:39:54;;;;;;;11.43;9.43;;;;;;;28.71;36.89;97042.97;5006178;28;20034;-61
2021/07/10 08:42:20;;;;;;;15.18;11.10;;;;;;;28.86;36.44;97031.56;5006634;28;20044;-61
2021/07/10 08:44:51;;;;;;;10.50;8.40;;;;;;;29.03;35.03;97035.50;5006229;28;20030;-60
2021/07/10 08:47:16;;;;;;;12.68;8.02;;;;;;;28.69;35.71;97045.53;5006028;28;20037;-61
2021/07/10 08:49:43;;;;;;;8.40;7.68;;;;;;;28.52;35.57;97000.88;5019396;28;20033;-62
2021/07/10 08:52:09;;;;;;;9.10;7.22;;;;;;;29.05;34.41;97044.34;5020085;28;20044;-61
2021/07/10 08:54:35;;;;;;;10.45;7.95;;;;;;;28.44;35.75;96989.03;5026079;28;20064;-62
2021/07/10 08:57:00;;;;;;;9.93;7.30;;;;;;;28.13;35.33;97014.34;5023607;28;20041;-61
2021/07/10 08:59:26;;;;;;;9.82;9.10;;;;;;;28.46;35.60;97037.00;5017004;28;20025;-62
2021/07/10 09:01:53;;;;;;;14.57;13.00;;;;;;;28.56;35.27;97018.59;5006973;28;20457;-61
2021/07/10 09:04:23;;;;;;;10.65;7.93;;;;;;;29.08;33.81;97009.16;5013916;28;20029;-60
2021/07/10 09:06:49;;;;;;;8.30;7.60;;;;;;;29.65;32.92;97030.31;5004045;28;20573;-64
2021/07/10 09:09:15;;;;;;;8.02;7.32;;;;;;;29.99;32.89;97035.19;5009734;28;20045;-63
2021/07/10 09:11:40;;;;;;;7.47;6.93;;;;;;;30.32;31.88;97027.06;5023654;28;20042;-63
2021/07/10 09:14:06;;;;;;;8.23;7.53;;;;;;;30.53;31.83;97036.41;5024325;28;20045;-61
2021/07/10 09:16:34;;;;;;;7.78;7.05;;;;;;;29.95;31.74;97020.34;5024830;28;20048;-65
2021/07/10 09:19:05;;;;;;;12.32;9.65;;;;;;;29.90;31.91;96994.53;5019191;28;20037;-61
2021/07/10 09:21:42;;;;;;;7.85;7.05;;;;;;;30.39;31.91;97009.47;5005230;28;20061;-59
2021/07/10 09:24:35;;;;;;;9.38;7.70;;;;;;;30.18;32.46;97021.41;5005540;28;20160;-60
2021/07/10 09:27:05;;;;;;;9.23;8.32;;;;;;;30.30;31.75;96995.34;5000577;28;20061;-60
2021/07/10 09:29:43;;;;;;;9.45;8.07;;;;;;;28.35;31.70;96689.13;5003635;28;20223;-63
2021/07/10 09:32:20;;;;;;;8.18;7.35;;;;;;;30.43;30.88;97021.47;5004872;28;20042;-60
2021/07/10 09:34:50;;;;;;;11.77;7.93;;;;;;;30.08;31.35;96955.03;5005335;28;20065;-61
2021/07/10 09:37:21;;;;;;;9.50;8.30;;;;;;;29.84;32.79;96996.56;5003415;28;20104;-60
2021/07/10 09:40:00;;;;;;;7.60;7.10;;;;;;;30.09;30.93;97019.50;5003332;28;20508;-60
2021/07/10 09:42:32;;;;;;;9.10;8.00;;;;;;;30.11;31.90;97004.69;5005500;28;20033;-60
2021/07/10 09:44:57;;;;;;;7.63;7.05;;;;;;;29.71;31.67;97022.63;5005466;28;20057;-61
2021/07/10 09:47:27;;;;;;;7.25;6.57;;;;;;;28.86;32.74;97014.47;5003588;28;20072;-61
2021/07/10 09:49:54;;;;;;;8.27;7.40;;;;;;;29.06;33.01;97011.69;5003264;28;20072;-60
2021/07/10 09:52:21;;;;;;;11.65;10.50;;;;;;;27.74;32.96;96802.81;5002947;28;20042;-61
2021/07/10 09:54:49;;;;;;;9.10;8.25;;;;;;;29.78;32.18;97016.50;5021084;28;20059;-60
2021/07/10 09:57:16;;;;;;;9.07;7.40;;;;;;;30.12;31.42;97007.06;5022904;28;20124;-60
2021/07/10 09:59:46;;;;;;;8.68;7.97;;;;;;;30.40;30.98;97011.03;5022921;28;20029;-61
2021/07/10 10:02:22;;;;;;;7.70;7.00;;;;;;;30.00;31.31;97002.50;5024184;28;20052;-60
2021/07/10 10:04:47;;;;;;;7.93;7.32;;;;;;;30.53;30.48;96997.16;5023219;28;20025;-61
2021/07/10 10:07:16;;;;;;;8.68;6.95;;;;;;;30.29;30.88;96941.50;5022686;28;20060;-61
2021/07/10 10:09:43;;;;;;;11.43;7.53;;;;;;;30.76;30.93;96998.97;5024040;28;20037;-61
2021/07/10 10:12:12;;;;;;;8.68;7.85;;;;;;;30.73;30.28;96959.91;5022475;28;20144;-59
2021/07/10 10:14:44;;;;;;;8.88;7.85;;;;;;;30.61;30.49;96992.56;5022658;28;20450;-60
2021/07/10 10:17:10;;;;;;;7.53;7.00;;;;;;;30.11;29.79;96968.34;5021695;28;20045;-60
2021/07/10 10:19:36;;;;;;;6.95;6.35;;;;;;;30.27;30.98;96989.84;5022627;28;20555;-61
2021/07/10 10:22:05;;;;;;;7.57;6.97;;;;;;;30.67;29.92;96992.59;5024374;28;20091;-62
2021/07/10 10:24:31;;;;;;;8.23;7.30;;;;;;;30.02;29.79;96934.19;5009451;28;20038;-61
2021/07/10 10:26:57;;;;;;;8.00;7.50;;;;;;;31.13;29.54;96992.50;5008450;28;20055;-60
2021/07/10 10:29:24;;;;;;;8.40;7.55;;;;;;;30.94;28.75;96981.44;5023670;28;20381;-60
2021/07/10 10:31:51;;;;;;;8.70;7.93;;;;;;;30.17;29.25;96974.09;5022574;28;20052;-61
2021/07/10 10:34:16;;;;;;;8.98;8.15;;;;;;;30.40;30.46;96985.31;5021788;28;20030;-61
2021/07/10 10:36:44;;;;;;;9.05;7.50;;;;;;;30.75;29.02;96980.22;5021653;28;20509;-61
2021/07/10 10:39:16;;;;;;;7.47;6.97;;;;;;;31.05;29.32;96959.94;5022134;28;20499;-60
2021/07/10 10:41:45;;;;;;;7.60;7.10;;;;;;;31.27;27.74;96974.41;5022127;28;20087;-61
2021/07/10 10:44:11;;;;;;;7.45;6.85;;;;;;;30.33;29.34;96977.19;5023758;28;20033;-61
2021/07/10 10:46:55;;;;;;;7.00;6.40;;;;;;;28.80;29.14;96714.16;5023352;28;20044;-61
2021/07/10 10:49:38;;;;;;;7.60;7.10;;;;;;;30.57;29.59;96954.03;5021855;28;20033;-62
2021/07/10 10:52:45;;;;;;;6.97;6.40;;;;;;;31.37;29.44;96970.09;5023675;28;20029;-60
2021/07/10 10:55:20;;;;;;;7.90;7.35;;;;;;;31.18;28.27;96926.72;5008198;28;20287;-61
2021/07/10 10:57:50;;;;;;;7.35;6.88;;;;;;;31.07;29.15;96974.50;5002317;28;20073;-60
2021/07/10 11:00:35;;;;;;;7.70;7.07;;;;;;;31.11;28.64;96972.22;5004293;28;20455;-61
2021/07/10 11:03:05;;;;;;;7.70;7.07;;;;;;;30.39;29.58;96958.03;5003962;28;20073;-63
2021/07/10 11:05:31;;;;;;;8.35;7.82;;;;;;;29.79;31.01;96966.63;5004023;28;20133;-63
2021/07/10 11:08:18;;;;;;;8.57;7.88;;;;;;;30.09;29.21;96968.06;5003840;28;20555;-63
2021/07/10 11:10:53;;;;;;;7.00;6.60;;;;;;;29.52;30.27;96964.16;5003557;28;20513;-62
2021/07/10 11:13:29;;;;;;;7.60;7.10;;;;;;;29.90;29.40;96898.22;5002331;28;20068;-62
2021/07/10 11:16:11;;;;;;;7.93;7.20;;;;;;;30.82;29.67;96956.13;5003816;28;20038;-62
2021/07/10 11:18:56;;;;;;;9.63;8.75;;;;;;;31.40;28.98;96964.13;5002183;28;20026;-62
2021/07/10 11:21:47;;;;;;;9.57;8.57;;;;;;;31.73;28.44;96949.19;5002509;28;20046;-63
2021/07/10 11:24:22;;;;;;;9.52;7.05;;;;;;;31.43;28.67;96939.41;5002232;28;20038;-61
2021/07/10 11:26:53;;;;;;;7.47;6.65;;;;;;;30.90;28.79;96937.97;5001909;28;20519;-61
2021/07/10 11:29:26;;;;;;;7.60;7.00;;;;;;;31.38;27.22;96937.31;5001951;28;20095;-62
2021/07/10 11:31:54;;;;;;;8.07;7.47;;;;;;;30.83;28.85;96934.78;5003166;28;20095;-60